sensor_id;sensor_type;location;lat;lon;timestamp;P1;durP1;ratioP1;P2;durP2;ratioP2
8450;SDS011;4262;50.980;13.892;2023-02-28T04:34:49;18.27;;;11.40;;
8450;SDS011;4262;50.980;13.892;2023-02-28T04:37:16;21.80;;;12.53;;
8450;SDS011;4262;50.980;13.892;2023-02-28T04:39:42;19.87;;;11.40;;
8450;SDS011;4262;50.980;13.892;2023-02-28T04:42:10;19.07;;;12.10;;
8450;SDS011;4262;50.980;13.892;2023-02-28T04:44:38;26.23;;;13.30;;
8450;SDS011;4262;50.980;13.892;2023-02-28T04:47:15;19.60;;;10.93;;
8450;SDS011;4262;50.980;13.892;2023-02-28T04:49:49;23.70;;;11.93;;
8450;SDS011;4262;50.980;13.892;2023-02-28T04:52:19;20.87;;;11.50;;
8450;SDS011;4262;50.980;13.892;2023-02-28T04:54:58;20.20;;;11.43;;
8450;SDS011;4262;50.980;13.892;2023-02-28T04:57:32;22.70;;;11.27;;
8450;SDS011;4262;50.980;13.892;2023-02-28T05:00:03;20.50;;;12.47;;
8450;SDS011;4262;50.980;13.892;2023-02-28T05:02:41;20.93;;;11.80;;
8450;SDS011;4262;50.980;13.892;2023-02-28T05:05:21;25.07;;;12.73;;
8450;SDS011;4262;50.980;13.892;2023-02-28T05:07:49;21.77;;;11.37;;
8450;SDS011;4262;50.980;13.892;2023-02-28T05:10:33;20.03;;;11.30;;
8450;SDS011;4262;50.980;13.892;2023-02-28T05:13:08;19.83;;;10.47;;
8450;SDS011;4262;50.980;13.892;2023-02-28T05:15:43;24.67;;;12.53;;
8450;SDS011;4262;50.980;13.892;2023-02-28T05:18:12;18.23;;;10.63;;
8450;SDS011;4262;50.980;13.892;2023-02-28T05:20:40;20.20;;;13.27;;
8450;SDS011;4262;50.980;13.892;2023-02-28T05:23:08;21.03;;;11.07;;
8450;SDS011;4262;50.980;13.892;2023-02-28T05:25:44;20.50;;;10.63;;
8450;SDS011;4262;50.980;13.892;2023-02-28T05:28:10;24.03;;;12.43;;
8450;SDS011;4262;50.980;13.892;2023-02-28T05:30:37;19.97;;;11.80;;
8450;SDS011;4262;50.980;13.892;2023-02-28T05:33:03;18.07;;;10.30;;
8450;SDS011;4262;50.980;13.892;2023-02-28T05:35:32;22.50;;;11.37;;
8450;SDS011;4262;50.980;13.892;2023-02-28T05:38:00;21.13;;;12.03;;
8450;SDS011;4262;50.980;13.892;2023-02-28T05:40:37;19.23;;;11.07;;
8450;SDS011;4262;50.980;13.892;2023-02-28T05:43:11;23.88;;;12.36;;
8450;SDS011;4262;50.980;13.892;2023-02-28T05:45:54;21.97;;;12.87;;
8450;SDS011;4262;50.980;13.892;2023-02-28T05:48:31;26.27;;;12.63;;
8450;SDS011;4262;50.980;13.892;2023-02-28T05:51:09;27.57;;;12.17;;
8450;SDS011;4262;50.980;13.892;2023-02-28T05:53:37;24.43;;;13.40;;
8450;SDS011;4262;50.980;13.892;2023-02-28T05:56:17;18.57;;;10.90;;
8450;SDS011;4262;50.980;13.892;2023-02-28T05:59:04;24.03;;;12.50;;
8450;SDS011;4262;50.980;13.892;2023-02-28T06:01:43;21.17;;;12.80;;
8450;SDS011;4262;50.980;13.892;2023-02-28T06:04:29;26.53;;;13.37;;
8450;SDS011;4262;50.980;13.892;2023-02-28T06:07:07;22.87;;;12.77;;
8450;SDS011;4262;50.980;13.892;2023-02-28T06:10:11;21.07;;;11.87;;
8450;SDS011;4262;50.980;13.892;2023-02-28T06:12:47;20.93;;;10.80;;
8450;SDS011;4262;50.980;13.892;2023-02-28T06:15:17;20.00;;;12.97;;
8450;SDS011;4262;50.980;13.892;2023-02-28T06:17:45;23.10;;;12.47;;
8450;SDS011;4262;50.980;13.892;2023-02-28T06:20:31;23.97;;;12.77;;
8450;SDS011;4262;50.980;13.892;2023-02-28T06:23:11;26.23;;;12.30;;
8450;SDS011;4262;50.980;13.892;2023-02-28T06:25:48;20.63;;;12.73;;
8450;SDS011;4262;50.980;13.892;2023-02-28T06:28:36;23.93;;;13.60;;
8450;SDS011;4262;50.980;13.892;2023-02-28T06:31:13;23.33;;;12.60;;
8450;SDS011;4262;50.980;13.892;2023-02-28T06:33:47;22.00;;;12.30;;
8450;SDS011;4262;50.980;13.892;2023-02-28T06:36:49;20.60;;;11.40;;
8450;SDS011;4262;50.980;13.892;2023-02-28T06:39:27;25.33;;;13.47;;
8450;SDS011;4262;50.980;13.892;2023-02-28T06:42:08;18.90;;;11.90;;
8450;SDS011;4262;50.980;13.892;2023-02-28T06:44:42;18.97;;;11.30;;
8450;SDS011;4262;50.980;13.892;2023-02-28T06:47:20;21.70;;;12.10;;
8450;SDS011;4262;50.980;13.892;2023-02-28T06:49:51;19.87;;;10.93;;
8450;SDS011;4262;50.980;13.892;2023-02-28T06:52:45;21.43;;;12.90;;
8450;SDS011;4262;50.980;13.892;2023-02-28T06:55:39;21.47;;;12.17;;
8450;SDS011;4262;50.980;13.892;2023-02-28T06:58:10;20.23;;;11.70;;
8450;SDS011;4262;50.980;13.892;2023-02-28T07:00:44;21.60;;;12.90;;
8450;SDS011;4262;50.980;13.892;2023-02-28T07:03:14;24.37;;;12.57;;
8450;SDS011;4262;50.980;13.892;2023-02-28T07:05:49;23.57;;;12.63;;
8450;SDS011;4262;50.980;13.892;2023-02-28T07:08:21;26.93;;;13.40;;
8450;SDS011;4262;50.980;13.892;2023-02-28T07:10:53;20.67;;;12.40;;
8450;SDS011;4262;50.980;13.892;2023-02-28T07:13:27;23.63;;;13.67;;
8450;SDS011;4262;50.980;13.892;2023-02-28T07:16:03;26.17;;;14.67;;
8450;SDS011;4262;50.980;13.892;2023-02-28T07:18:46;25.07;;;13.57;;
8450;SDS011;4262;50.980;13.892;2023-02-28T07:21:30;23.93;;;13.23;;
8450;SDS011;4262;50.980;13.892;2023-02-28T07:24:05;24.43;;;14.30;;
8450;SDS011;4262;50.980;13.892;2023-02-28T07:26:43;24.57;;;14.43;;
8450;SDS011;4262;50.980;13.892;2023-02-28T07:29:18;24.57;;;12.93;;
8450;SDS011;4262;50.980;13.892;2023-02-28T07:31:53;22.90;;;14.50;;
8450;SDS011;4262;50.980;13.892;2023-02-28T07:34:23;23.60;;;13.70;;
8450;SDS011;4262;50.980;13.892;2023-02-28T07:36:56;34.97;;;12.30;;
8450;SDS011;4262;50.980;13.892;2023-02-28T07:39:42;25.17;;;14.47;;
8450;SDS011;4262;50.980;13.892;2023-02-28T07:42:12;23.30;;;14.37;;
8450;SDS011;4262;50.980;13.892;2023-02-28T07:44:48;25.30;;;14.63;;
8450;SDS011;4262;50.980;13.892;2023-02-28T07:47:19;21.20;;;13.50;;
8450;SDS011;4262;50.980;13.892;2023-02-28T07:49:46;23.27;;;14.50;;
8450;SDS011;4262;50.980;13.892;2023-02-28T07:52:13;18.63;;;11.83;;
8450;SDS011;4262;50.980;13.892;2023-02-28T07:54:40;25.03;;;14.10;;
8450;SDS011;4262;50.980;13.892;2023-02-28T07:57:07;24.30;;;14.33;;
8450;SDS011;4262;50.980;13.892;2023-02-28T07:59:34;21.37;;;12.60;;
8450;SDS011;4262;50.980;13.892;2023-02-28T08:02:02;24.40;;;12.40;;
8450;SDS011;4262;50.980;13.892;2023-02-28T08:04:31;20.77;;;12.90;;
8450;SDS011;4262;50.980;13.892;2023-02-28T08:06:58;23.03;;;12.97;;
8450;SDS011;4262;50.980;13.892;2023-02-28T08:09:25;25.53;;;13.20;;
8450;SDS011;4262;50.980;13.892;2023-02-28T08:11:52;22.60;;;11.87;;
8450;SDS011;4262;50.980;13.892;2023-02-28T08:14:19;23.40;;;12.97;;
8450;SDS011;4262;50.980;13.892;2023-02-28T08:16:46;20.50;;;13.03;;
8450;SDS011;4262;50.980;13.892;2023-02-28T08:19:23;21.77;;;13.20;;
8450;SDS011;4262;50.980;13.892;2023-02-28T08:21:50;21.67;;;12.80;;
8450;SDS011;4262;50.980;13.892;2023-02-28T08:24:17;32.40;;;13.67;;
8450;SDS011;4262;50.980;13.892;2023-02-28T08:26:44;19.97;;;11.40;;
8450;SDS011;4262;50.980;13.892;2023-02-28T08:29:10;23.77;;;11.60;;
8450;SDS011;4262;50.980;13.892;2023-02-28T08:31:37;26.37;;;13.43;;
8450;SDS011;4262;50.980;13.892;2023-02-28T08:34:05;22.60;;;12.70;;
8450;SDS011;4262;50.980;13.892;2023-02-28T08:36:35;23.10;;;12.47;;
8450;SDS011;4262;50.980;13.892;2023-02-28T08:39:02;25.07;;;15.37;;
8450;SDS011;4262;50.980;13.892;2023-02-28T08:41:30;24.23;;;12.17;;
8450;SDS011;4262;50.980;13.892;2023-02-28T08:43:59;28.70;;;14.50;;
8450;SDS011;4262;50.980;13.892;2023-02-28T08:46:26;24.57;;;13.90;;
8450;SDS011;4262;50.980;13.892;2023-02-28T08:48:53;30.73;;;13.33;;
8450;SDS011;4262;50.980;13.892;2023-02-28T08:51:21;21.17;;;12.20;;
8450;SDS011;4262;50.980;13.892;2023-02-28T08:53:53;25.07;;;13.50;;
8450;SDS011;4262;50.980;13.892;2023-02-28T08:56:20;26.57;;;13.33;;
8450;SDS011;4262;50.980;13.892;2023-02-28T08:58:48;21.20;;;13.53;;
8450;SDS011;4262;50.980;13.892;2023-02-28T09:01:16;27.87;;;13.77;;
8450;SDS011;4262;50.980;13.892;2023-02-28T09:03:44;22.20;;;13.07;;
8450;SDS011;4262;50.980;13.892;2023-02-28T09:06:12;25.13;;;13.17;;
8450;SDS011;4262;50.980;13.892;2023-02-28T09:08:40;26.53;;;13.10;;
8450;SDS011;4262;50.980;13.892;2023-02-28T09:11:09;24.20;;;14.57;;
8450;SDS011;4262;50.980;13.892;2023-02-28T09:13:38;26.77;;;14.50;;
8450;SDS011;4262;50.980;13.892;2023-02-28T09:16:06;23.93;;;12.50;;
8450;SDS011;4262;50.980;13.892;2023-02-28T09:18:34;26.70;;;14.40;;
8450;SDS011;4262;50.980;13.892;2023-02-28T09:21:05;24.13;;;13.37;;
8450;SDS011;4262;50.980;13.892;2023-02-28T09:23:35;24.23;;;12.10;;
8450;SDS011;4262;50.980;13.892;2023-02-28T09:26:03;23.60;;;13.77;;
8450;SDS011;4262;50.980;13.892;2023-02-28T09:28:32;24.70;;;13.17;;
8450;SDS011;4262;50.980;13.892;2023-02-28T09:30:59;20.83;;;13.30;;
8450;SDS011;4262;50.980;13.892;2023-02-28T09:33:27;23.33;;;14.27;;
8450;SDS011;4262;50.980;13.892;2023-02-28T09:35:57;21.40;;;12.20;;
8450;SDS011;4262;50.980;13.892;2023-02-28T09:38:26;23.80;;;12.87;;
8450;SDS011;4262;50.980;13.892;2023-02-28T09:40:53;26.43;;;14.17;;
8450;SDS011;4262;50.980;13.892;2023-02-28T09:43:25;24.60;;;13.27;;
8450;SDS011;4262;50.980;13.892;2023-02-28T09:45:59;20.53;;;11.63;;
8450;SDS011;4262;50.980;13.892;2023-02-28T09:48:38;20.03;;;11.33;;
8450;SDS011;4262;50.980;13.892;2023-02-28T09:51:11;23.10;;;11.53;;
8450;SDS011;4262;50.980;13.892;2023-02-28T09:53:49;23.20;;;12.60;;
8450;SDS011;4262;50.980;13.892;2023-02-28T09:56:18;20.10;;;11.13;;
8450;SDS011;4262;50.980;13.892;2023-02-28T09:58:52;18.27;;;10.80;;
8450;SDS011;4262;50.980;13.892;2023-02-28T10:01:37;16.33;;;8.40;;
8450;SDS011;4262;50.980;13.892;2023-02-28T10:04:10;25.10;;;9.50;;
8450;SDS011;4262;50.980;13.892;2023-02-28T10:06:51;23.17;;;10.70;;
8450;SDS011;4262;50.980;13.892;2023-02-28T10:09:20;16.90;;;10.10;;
8450;SDS011;4262;50.980;13.892;2023-02-28T10:11:50;17.33;;;8.50;;
8450;SDS011;4262;50.980;13.892;2023-02-28T10:14:21;19.67;;;8.60;;
8450;SDS011;4262;50.980;13.892;2023-02-28T10:16:51;16.77;;;9.00;;
8450;SDS011;4262;50.980;13.892;2023-02-28T10:19:22;21.70;;;11.80;;
8450;SDS011;4262;50.980;13.892;2023-02-28T10:21:59;18.30;;;9.80;;
8450;SDS011;4262;50.980;13.892;2023-02-28T10:24:29;16.77;;;9.43;;
8450;SDS011;4262;50.980;13.892;2023-02-28T10:26:59;18.30;;;10.07;;
8450;SDS011;4262;50.980;13.892;2023-02-28T10:29:29;21.07;;;11.90;;
8450;SDS011;4262;50.980;13.892;2023-02-28T10:32:01;18.93;;;9.30;;
8450;SDS011;4262;50.980;13.892;2023-02-28T10:34:31;18.73;;;11.13;;
8450;SDS011;4262;50.980;13.892;2023-02-28T10:36:58;16.90;;;9.80;;
8450;SDS011;4262;50.980;13.892;2023-02-28T10:39:37;17.87;;;10.13;;
8450;SDS011;4262;50.980;13.892;2023-02-28T10:42:05;19.20;;;10.83;;
8450;SDS011;4262;50.980;13.892;2023-02-28T10:44:46;21.53;;;10.87;;
8450;SDS011;4262;50.980;13.892;2023-02-28T10:47:15;22.97;;;12.03;;
8450;SDS011;4262;50.980;13.892;2023-02-28T10:49:46;23.67;;;11.03;;
8450;SDS011;4262;50.980;13.892;2023-02-28T10:52:14;20.10;;;11.60;;
8450;SDS011;4262;50.980;13.892;2023-02-28T10:55:14;19.20;;;10.73;;
8450;SDS011;4262;50.980;13.892;2023-02-28T10:57:42;15.67;;;9.50;;
8450;SDS011;4262;50.980;13.892;2023-02-28T11:00:13;19.13;;;11.03;;
8450;SDS011;4262;50.980;13.892;2023-02-28T11:02:43;19.50;;;9.47;;
8450;SDS011;4262;50.980;13.892;2023-02-28T11:05:25;16.23;;;10.20;;
8450;SDS011;4262;50.980;13.892;2023-02-28T11:07:53;19.53;;;10.60;;
8450;SDS011;4262;50.980;13.892;2023-02-28T11:10:22;17.93;;;9.37;;
8450;SDS011;4262;50.980;13.892;2023-02-28T11:12:54;16.60;;;9.53;;
8450;SDS011;4262;50.980;13.892;2023-02-28T11:15:25;19.57;;;9.00;;
8450;SDS011;4262;50.980;13.892;2023-02-28T11:17:56;17.10;;;10.03;;
8450;SDS011;4262;50.980;13.892;2023-02-28T11:20:26;16.93;;;9.40;;
8450;SDS011;4262;50.980;13.892;2023-02-28T11:22:55;18.57;;;8.83;;
8450;SDS011;4262;50.980;13.892;2023-02-28T11:25:25;15.40;;;9.07;;
8450;SDS011;4262;50.980;13.892;2023-02-28T11:27:56;17.50;;;9.10;;
8450;SDS011;4262;50.980;13.892;2023-02-28T11:30:27;16.33;;;8.73;;
8450;SDS011;4262;50.980;13.892;2023-02-28T11:32:57;19.80;;;8.30;;
8450;SDS011;4262;50.980;13.892;2023-02-28T11:35:27;12.83;;;7.53;;
8450;SDS011;4262;50.980;13.892;2023-02-28T11:37:57;15.60;;;8.47;;
8450;SDS011;4262;50.980;13.892;2023-02-28T11:40:36;15.20;;;8.07;;
8450;SDS011;4262;50.980;13.892;2023-02-28T11:43:13;16.00;;;9.07;;
8450;SDS011;4262;50.980;13.892;2023-02-28T11:45:56;16.90;;;9.43;;
8450;SDS011;4262;50.980;13.892;2023-02-28T11:48:36;17.13;;;8.63;;
8450;SDS011;4262;50.980;13.892;2023-02-28T11:51:15;21.40;;;10.77;;
8450;SDS011;4262;50.980;13.892;2023-02-28T11:53:53;18.60;;;8.97;;
8450;SDS011;4262;50.980;13.892;2023-02-28T11:56:31;19.53;;;9.77;;
8450;SDS011;4262;50.980;13.892;2023-02-28T11:59:15;17.60;;;9.80;;
8450;SDS011;4262;50.980;13.892;2023-02-28T12:02:20;15.73;;;9.60;;
8450;SDS011;4262;50.980;13.892;2023-02-28T12:04:59;18.37;;;9.80;;
8450;SDS011;4262;50.980;13.892;2023-02-28T12:07:37;17.40;;;10.03;;
8450;SDS011;4262;50.980;13.892;2023-02-28T12:10:11;16.13;;;8.57;;
8450;SDS011;4262;50.980;13.892;2023-02-28T12:12:49;18.40;;;9.43;;
8450;SDS011;4262;50.980;13.892;2023-02-28T12:15:34;20.03;;;8.80;;
8450;SDS011;4262;50.980;13.892;2023-02-28T12:18:15;16.40;;;9.33;;
8450;SDS011;4262;50.980;13.892;2023-02-28T12:20:54;15.80;;;9.60;;
8450;SDS011;4262;50.980;13.892;2023-02-28T12:23:36;14.80;;;8.70;;
8450;SDS011;4262;50.980;13.892;2023-02-28T12:26:15;17.20;;;9.33;;
8450;SDS011;4262;50.980;13.892;2023-02-28T12:28:47;15.87;;;8.97;;
8450;SDS011;4262;50.980;13.892;2023-02-28T12:31:18;16.80;;;9.57;;
8450;SDS011;4262;50.980;13.892;2023-02-28T12:33:50;16.63;;;9.43;;
8450;SDS011;4262;50.980;13.892;2023-02-28T12:36:20;17.80;;;10.03;;
8450;SDS011;4262;50.980;13.892;2023-02-28T12:38:50;16.50;;;9.53;;
8450;SDS011;4262;50.980;13.892;2023-02-28T12:41:22;19.40;;;10.43;;
8450;SDS011;4262;50.980;13.892;2023-02-28T12:43:56;17.13;;;9.10;;
8450;SDS011;4262;50.980;13.892;2023-02-28T12:46:30;18.50;;;9.17;;
8450;SDS011;4262;50.980;13.892;2023-02-28T12:49:00;19.03;;;10.03;;
8450;SDS011;4262;50.980;13.892;2023-02-28T12:51:33;19.43;;;10.00;;
8450;SDS011;4262;50.980;13.892;2023-02-28T12:54:04;20.40;;;10.17;;
8450;SDS011;4262;50.980;13.892;2023-02-28T12:56:42;20.83;;;11.00;;
8450;SDS011;4262;50.980;13.892;2023-02-28T12:59:17;22.03;;;9.80;;
8450;SDS011;4262;50.980;13.892;2023-02-28T13:02:00;18.30;;;9.13;;
8450;SDS011;4262;50.980;13.892;2023-02-28T13:04:47;21.60;;;10.53;;
8450;SDS011;4262;50.980;13.892;2023-02-28T13:07:32;19.10;;;10.57;;
8450;SDS011;4262;50.980;13.892;2023-02-28T13:10:12;20.27;;;10.40;;
8450;SDS011;4262;50.980;13.892;2023-02-28T13:12:46;24.00;;;12.13;;
8450;SDS011;4262;50.980;13.892;2023-02-28T13:15:17;22.20;;;13.30;;
8450;SDS011;4262;50.980;13.892;2023-02-28T13:17:51;20.60;;;10.80;;
8450;SDS011;4262;50.980;13.892;2023-02-28T13:20:20;19.67;;;11.47;;
8450;SDS011;4262;50.980;13.892;2023-02-28T13:22:51;20.03;;;11.27;;
8450;SDS011;4262;50.980;13.892;2023-02-28T13:31:32;25.17;;;12.10;;
8450;SDS011;4262;50.980;13.892;2023-02-28T13:34:19;23.47;;;11.80;;
8450;SDS011;4262;50.980;13.892;2023-02-28T13:36:46;22.03;;;11.50;;
8450;SDS011;4262;50.980;13.892;2023-02-28T13:42:23;18.90;;;10.10;;
8450;SDS011;4262;50.980;13.892;2023-02-28T13:45:24;20.87;;;12.70;;
8450;SDS011;4262;50.980;13.892;2023-02-28T13:47:53;21.53;;;13.10;;
8450;SDS011;4262;50.980;13.892;2023-02-28T13:50:26;23.23;;;12.93;;
8450;SDS011;4262;50.980;13.892;2023-02-28T13:52:59;20.07;;;11.37;;
8450;SDS011;4262;50.980;13.892;2023-02-28T13:55:48;24.07;;;12.33;;
8450;SDS011;4262;50.980;13.892;2023-02-28T13:58:25;25.57;;;13.57;;
8450;SDS011;4262;50.980;13.892;2023-02-28T14:01:06;25.07;;;12.03;;
8450;SDS011;4262;50.980;13.892;2023-02-28T14:03:44;23.13;;;13.40;;
8450;SDS011;4262;50.980;13.892;2023-02-28T14:06:25;23.03;;;12.67;;
8450;SDS011;4262;50.980;13.892;2023-02-28T14:08:56;29.37;;;13.13;;
8450;SDS011;4262;50.980;13.892;2023-02-28T14:11:29;27.60;;;13.40;;
8450;SDS011;4262;50.980;13.892;2023-02-28T14:13:58;25.90;;;13.50;;
8450;SDS011;4262;50.980;13.892;2023-02-28T14:16:25;23.10;;;13.30;;
8450;SDS011;4262;50.980;13.892;2023-02-28T14:18:56;26.27;;;13.90;;
8450;SDS011;4262;50.980;13.892;2023-02-28T14:21:26;23.07;;;12.30;;
8450;SDS011;4262;50.980;13.892;2023-02-28T14:24:10;22.23;;;13.50;;
8450;SDS011;4262;50.980;13.892;2023-02-28T14:27:00;22.33;;;12.70;;
8450;SDS011;4262;50.980;13.892;2023-02-28T14:29:52;24.40;;;12.27;;
8450;SDS011;4262;50.980;13.892;2023-02-28T14:32:35;20.77;;;11.33;;
8450;SDS011;4262;50.980;13.892;2023-02-28T14:35:12;19.87;;;10.90;;
8450;SDS011;4262;50.980;13.892;2023-02-28T14:37:47;16.87;;;8.80;;
8450;SDS011;4262;50.980;13.892;2023-02-28T14:40:15;20.37;;;11.60;;
8450;SDS011;4262;50.980;13.892;2023-02-28T14:42:48;24.13;;;13.93;;
8450;SDS011;4262;50.980;13.892;2023-02-28T14:45:21;24.07;;;12.70;;
8450;SDS011;4262;50.980;13.892;2023-02-28T14:47:51;24.13;;;12.17;;
8450;SDS011;4262;50.980;13.892;2023-02-28T14:50:18;22.97;;;12.40;;
8450;SDS011;4262;50.980;13.892;2023-02-28T14:52:47;22.53;;;12.37;;
8450;SDS011;4262;50.980;13.892;2023-02-28T14:55:18;28.27;;;13.00;;
8450;SDS011;4262;50.980;13.892;2023-02-28T14:57:51;26.30;;;14.20;;
8450;SDS011;4262;50.980;13.892;2023-02-28T15:00:22;24.80;;;14.63;;
8450;SDS011;4262;50.980;13.892;2023-02-28T15:02:52;24.40;;;12.00;;
8450;SDS011;4262;50.980;13.892;2023-02-28T15:05:23;24.20;;;14.00;;
8450;SDS011;4262;50.980;13.892;2023-02-28T15:08:06;18.30;;;12.00;;
8450;SDS011;4262;50.980;13.892;2023-02-28T15:10:37;20.97;;;13.03;;
8450;SDS011;4262;50.980;13.892;2023-02-28T15:13:07;25.47;;;12.20;;
8450;SDS011;4262;50.980;13.892;2023-02-28T15:15:40;22.63;;;12.63;;
8450;SDS011;4262;50.980;13.892;2023-02-28T15:18:11;24.17;;;13.47;;
8450;SDS011;4262;50.980;13.892;2023-02-28T15:20:42;25.77;;;14.80;;
8450;SDS011;4262;50.980;13.892;2023-02-28T15:23:11;27.53;;;13.27;;
8450;SDS011;4262;50.980;13.892;2023-02-28T15:25:38;26.27;;;14.23;;
8450;SDS011;4262;50.980;13.892;2023-02-28T15:28:10;30.03;;;13.77;;
8450;SDS011;4262;50.980;13.892;2023-02-28T15:30:49;21.60;;;12.83;;
8450;SDS011;4262;50.980;13.892;2023-02-28T15:33:18;23.47;;;14.10;;
8450;SDS011;4262;50.980;13.892;2023-02-28T15:35:48;28.43;;;13.20;;
8450;SDS011;4262;50.980;13.892;2023-02-28T15:38:16;27.80;;;14.40;;
8450;SDS011;4262;50.980;13.892;2023-02-28T15:40:44;25.90;;;14.60;;
8450;SDS011;4262;50.980;13.892;2023-02-28T15:43:22;21.50;;;12.47;;
8450;SDS011;4262;50.980;13.892;2023-02-28T15:45:51;28.90;;;14.50;;
8450;SDS011;4262;50.980;13.892;2023-02-28T15:48:22;23.63;;;14.70;;
8450;SDS011;4262;50.980;13.892;2023-02-28T15:50:51;24.33;;;13.50;;
8450;SDS011;4262;50.980;13.892;2023-02-28T15:53:21;34.87;;;20.90;;
8450;SDS011;4262;50.980;13.892;2023-02-28T15:55:54;22.50;;;13.67;;
8450;SDS011;4262;50.980;13.892;2023-02-28T15:58:26;31.10;;;15.57;;
8450;SDS011;4262;50.980;13.892;2023-02-28T16:01:00;25.80;;;14.40;;
8450;SDS011;4262;50.980;13.892;2023-02-28T16:03:37;22.80;;;12.40;;
8450;SDS011;4262;50.980;13.892;2023-02-28T16:06:17;22.87;;;13.77;;
8450;SDS011;4262;50.980;13.892;2023-02-28T16:08:52;27.10;;;14.03;;
8450;SDS011;4262;50.980;13.892;2023-02-28T16:11:19;24.60;;;12.67;;
8450;SDS011;4262;50.980;13.892;2023-02-28T16:13:49;23.20;;;14.43;;
8450;SDS011;4262;50.980;13.892;2023-02-28T16:16:17;23.37;;;14.17;;
8450;SDS011;4262;50.980;13.892;2023-02-28T16:18:44;22.10;;;13.50;;
8450;SDS011;4262;50.980;13.892;2023-02-28T16:21:11;25.33;;;14.73;;
8450;SDS011;4262;50.980;13.892;2023-02-28T16:23:38;28.03;;;17.30;;
8450;SDS011;4262;50.980;13.892;2023-02-28T16:26:05;26.30;;;15.20;;
8450;SDS011;4262;50.980;13.892;2023-02-28T16:28:33;25.63;;;15.67;;
8450;SDS011;4262;50.980;13.892;2023-02-28T16:31:05;27.57;;;15.97;;
8450;SDS011;4262;50.980;13.892;2023-02-28T16:33:33;26.30;;;15.97;;
8450;SDS011;4262;50.980;13.892;2023-02-28T16:36:00;27.63;;;16.03;;
8450;SDS011;4262;50.980;13.892;2023-02-28T16:38:27;22.93;;;14.10;;
8450;SDS011;4262;50.980;13.892;2023-02-28T16:40:55;30.20;;;16.30;;
8450;SDS011;4262;50.980;13.892;2023-02-28T16:43:24;23.10;;;15.00;;
8450;SDS011;4262;50.980;13.892;2023-02-28T16:45:54;25.37;;;15.53;;
8450;SDS011;4262;50.980;13.892;2023-02-28T16:48:24;32.33;;;14.90;;
8450;SDS011;4262;50.980;13.892;2023-02-28T16:50:51;25.43;;;14.03;;
8450;SDS011;4262;50.980;13.892;2023-02-28T16:53:18;30.10;;;16.13;;
8450;SDS011;4262;50.980;13.892;2023-02-28T16:55:44;24.80;;;15.37;;
8450;SDS011;4262;50.980;13.892;2023-02-28T16:58:13;23.80;;;14.93;;
8450;SDS011;4262;50.980;13.892;2023-02-28T17:00:41;25.10;;;15.40;;
8450;SDS011;4262;50.980;13.892;2023-02-28T17:03:09;25.60;;;15.37;;
8450;SDS011;4262;50.980;13.892;2023-02-28T17:05:49;31.47;;;16.57;;
8450;SDS011;4262;50.980;13.892;2023-02-28T17:08:16;32.27;;;14.83;;
8450;SDS011;4262;50.980;13.892;2023-02-28T17:10:43;34.17;;;15.70;;
8450;SDS011;4262;50.980;13.892;2023-02-28T17:13:10;26.50;;;15.10;;
8450;SDS011;4262;50.980;13.892;2023-02-28T17:15:39;28.83;;;14.23;;
8450;SDS011;4262;50.980;13.892;2023-02-28T17:18:08;23.37;;;13.33;;
8450;SDS011;4262;50.980;13.892;2023-02-28T17:20:39;34.60;;;16.17;;
8450;SDS011;4262;50.980;13.892;2023-02-28T17:23:08;29.53;;;16.10;;
8450;SDS011;4262;50.980;13.892;2023-02-28T17:25:35;27.83;;;15.90;;
8450;SDS011;4262;50.980;13.892;2023-02-28T17:28:02;26.23;;;14.90;;
8450;SDS011;4262;50.980;13.892;2023-02-28T17:30:30;26.57;;;15.27;;
8450;SDS011;4262;50.980;13.892;2023-02-28T17:33:00;29.13;;;16.30;;
8450;SDS011;4262;50.980;13.892;2023-02-28T17:35:28;26.30;;;15.27;;
8450;SDS011;4262;50.980;13.892;2023-02-28T17:37:55;27.40;;;15.30;;
8450;SDS011;4262;50.980;13.892;2023-02-28T17:40:23;23.30;;;14.33;;
8450;SDS011;4262;50.980;13.892;2023-02-28T17:42:50;25.20;;;15.47;;
8450;SDS011;4262;50.980;13.892;2023-02-28T17:45:18;28.40;;;16.10;;
8450;SDS011;4262;50.980;13.892;2023-02-28T17:47:47;29.50;;;14.80;;
8450;SDS011;4262;50.980;13.892;2023-02-28T17:50:15;22.17;;;14.13;;
8450;SDS011;4262;50.980;13.892;2023-02-28T17:52:44;29.37;;;15.50;;
8450;SDS011;4262;50.980;13.892;2023-02-28T17:55:11;29.77;;;16.07;;
8450;SDS011;4262;50.980;13.892;2023-02-28T17:57:39;24.50;;;15.67;;
8450;SDS011;4262;50.980;13.892;2023-02-28T18:00:07;30.13;;;15.93;;
8450;SDS011;4262;50.980;13.892;2023-02-28T18:02:40;22.70;;;14.90;;
8450;SDS011;4262;50.980;13.892;2023-02-28T18:05:07;31.60;;;18.30;;
8450;SDS011;4262;50.980;13.892;2023-02-28T18:07:35;46.37;;;25.70;;
8450;SDS011;4262;50.980;13.892;2023-02-28T18:10:03;31.03;;;17.30;;
8450;SDS011;4262;50.980;13.892;2023-02-28T18:12:33;27.77;;;16.43;;
8450;SDS011;4262;50.980;13.892;2023-02-28T18:15:01;28.43;;;17.10;;
8450;SDS011;4262;50.980;13.892;2023-02-28T18:17:27;29.73;;;18.10;;
8450;SDS011;4262;50.980;13.892;2023-02-28T18:19:54;29.03;;;17.07;;
8450;SDS011;4262;50.980;13.892;2023-02-28T18:22:21;32.03;;;18.50;;
8450;SDS011;4262;50.980;13.892;2023-02-28T18:24:48;32.47;;;17.73;;
8450;SDS011;4262;50.980;13.892;2023-02-28T18:27:15;25.97;;;16.80;;
8450;SDS011;4262;50.980;13.892;2023-02-28T18:29:44;30.07;;;16.83;;
8450;SDS011;4262;50.980;13.892;2023-02-28T18:32:13;32.73;;;19.37;;
8450;SDS011;4262;50.980;13.892;2023-02-28T18:34:40;33.87;;;17.97;;
8450;SDS011;4262;50.980;13.892;2023-02-28T18:37:06;28.67;;;17.10;;
8450;SDS011;4262;50.980;13.892;2023-02-28T18:39:36;36.13;;;18.67;;
8450;SDS011;4262;50.980;13.892;2023-02-28T18:42:03;28.97;;;17.10;;
8450;SDS011;4262;50.980;13.892;2023-02-28T18:44:30;34.17;;;18.10;;
8450;SDS011;4262;50.980;13.892;2023-02-28T18:46:56;33.90;;;19.40;;
8450;SDS011;4262;50.980;13.892;2023-02-28T18:49:25;33.00;;;19.10;;
8450;SDS011;4262;50.980;13.892;2023-02-28T18:51:51;31.97;;;17.57;;
8450;SDS011;4262;50.980;13.892;2023-02-28T18:54:18;33.37;;;19.07;;
8450;SDS011;4262;50.980;13.892;2023-02-28T18:56:45;32.50;;;18.17;;
8450;SDS011;4262;50.980;13.892;2023-02-28T18:59:12;35.13;;;18.10;;
8450;SDS011;4262;50.980;13.892;2023-02-28T19:01:38;37.30;;;20.77;;
8450;SDS011;4262;50.980;13.892;2023-02-28T19:04:05;30.97;;;19.53;;
8450;SDS011;4262;50.980;13.892;2023-02-28T19:06:33;31.00;;;19.03;;
8450;SDS011;4262;50.980;13.892;2023-02-28T19:09:02;36.27;;;20.33;;
8450;SDS011;4262;50.980;13.892;2023-02-28T19:11:30;35.17;;;22.40;;
8450;SDS011;4262;50.980;13.892;2023-02-28T19:13:58;39.17;;;23.80;;
8450;SDS011;4262;50.980;13.892;2023-02-28T19:16:26;48.70;;;28.20;;
8450;SDS011;4262;50.980;13.892;2023-02-28T19:18:53;44.57;;;26.30;;
8450;SDS011;4262;50.980;13.892;2023-02-28T19:21:21;42.00;;;27.77;;
8450;SDS011;4262;50.980;13.892;2023-02-28T19:23:52;55.07;;;26.70;;
8450;SDS011;4262;50.980;13.892;2023-02-28T19:26:20;43.10;;;26.77;;
8450;SDS011;4262;50.980;13.892;2023-02-28T19:28:47;51.57;;;27.03;;
8450;SDS011;4262;50.980;13.892;2023-02-28T19:31:15;45.73;;;26.67;;
8450;SDS011;4262;50.980;13.892;2023-02-28T19:33:43;41.37;;;24.63;;
8450;SDS011;4262;50.980;13.892;2023-02-28T19:36:10;50.80;;;25.10;;
8450;SDS011;4262;50.980;13.892;2023-02-28T19:38:41;47.50;;;26.03;;
8450;SDS011;4262;50.980;13.892;2023-02-28T19:41:11;50.80;;;27.33;;
8450;SDS011;4262;50.980;13.892;2023-02-28T19:43:39;45.47;;;27.27;;
8450;SDS011;4262;50.980;13.892;2023-02-28T19:46:06;46.47;;;27.20;;
8450;SDS011;4262;50.980;13.892;2023-02-28T19:48:33;78.40;;;38.83;;